Blackberry City, West Virginia
Current Conditions -  °F | °C
As of 12:35 AM on Wednesday 26 Nov 2014 (Local Time) from KPBX Reporting Station
Clear Clear  
Wind Chill: 37°   Ceiling: Unl
Heat Index: 40°   Visibility: 10mi
Dew Point: 28°   Wind: 5mph
Humidity: 63%   Direction: 10°N
Pressure: 30.09"   Gusts: NA
Location:  37.652°N, 82.1338°W
Report Text: KPBX 260535Z AUTO 01004KT 10SM CLR 05/M02 A3009 RMK AO2 T00461020
Loading
Personal Weather Stations






























Interactive Weather Map New forecast layout! Learn more

10-Day Weather Forecast

Advertisements
Track Severe Weather on mobile